sensor_id;sensor_type;location;lat;lon;timestamp;P1;durP1;ratioP1;P2;durP2;ratioP2
53873;SDS011;62246;50.938;4.058;2022-09-29T00:00:08;14.98;;;8.40;;
53873;SDS011;62246;50.938;4.058;2022-09-29T00:02:34;12.65;;;8.57;;
53873;SDS011;62246;50.938;4.058;2022-09-29T00:05:00;14.05;;;7.95;;
53873;SDS011;62246;50.938;4.058;2022-09-29T00:07:26;16.80;;;8.30;;
53873;SDS011;62246;50.938;4.058;2022-09-29T00:09:52;14.95;;;8.00;;
53873;SDS011;62246;50.938;4.058;2022-09-29T00:12:18;18.30;;;8.35;;
53873;SDS011;62246;50.938;4.058;2022-09-29T00:14:43;16.17;;;8.50;;
53873;SDS011;62246;50.938;4.058;2022-09-29T00:17:08;16.65;;;8.07;;
53873;SDS011;62246;50.938;4.058;2022-09-29T00:19:34;14.98;;;7.22;;
53873;SDS011;62246;50.938;4.058;2022-09-29T00:21:59;14.98;;;8.05;;
53873;SDS011;62246;50.938;4.058;2022-09-29T00:24:25;15.25;;;8.57;;
53873;SDS011;62246;50.938;4.058;2022-09-29T00:26:51;12.70;;;7.78;;
53873;SDS011;62246;50.938;4.058;2022-09-29T00:29:17;14.15;;;8.40;;
53873;SDS011;62246;50.938;4.058;2022-09-29T00:31:42;13.10;;;7.60;;
53873;SDS011;62246;50.938;4.058;2022-09-29T00:34:07;13.52;;;7.60;;
53873;SDS011;62246;50.938;4.058;2022-09-29T00:36:33;23.48;;;9.10;;
53873;SDS011;62246;50.938;4.058;2022-09-29T00:38:58;17.27;;;8.20;;
53873;SDS011;62246;50.938;4.058;2022-09-29T00:41:25;14.85;;;8.25;;
53873;SDS011;62246;50.938;4.058;2022-09-29T00:52:07;14.25;;;8.13;;
53873;SDS011;62246;50.938;4.058;2022-09-29T00:54:43;14.55;;;8.35;;
53873;SDS011;62246;50.938;4.058;2022-09-29T00:57:13;12.77;;;8.50;;
53873;SDS011;62246;50.938;4.058;2022-09-29T00:59:48;14.20;;;9.10;;
53873;SDS011;62246;50.938;4.058;2022-09-29T01:02:17;15.13;;;9.00;;
53873;SDS011;62246;50.938;4.058;2022-09-29T01:04:47;14.63;;;8.38;;
53873;SDS011;62246;50.938;4.058;2022-09-29T01:07:16;16.60;;;8.82;;
53873;SDS011;62246;50.938;4.058;2022-09-29T01:09:44;15.05;;;8.95;;
53873;SDS011;62246;50.938;4.058;2022-09-29T01:12:10;16.25;;;9.23;;
53873;SDS011;62246;50.938;4.058;2022-09-29T01:14:36;15.98;;;9.48;;
53873;SDS011;62246;50.938;4.058;2022-09-29T01:17:02;14.18;;;9.18;;
53873;SDS011;62246;50.938;4.058;2022-09-29T01:41:39;16.10;;;10.10;;
53873;SDS011;62246;50.938;4.058;2022-09-29T01:46:43;14.40;;;8.80;;
53873;SDS011;62246;50.938;4.058;2022-09-29T01:49:15;17.85;;;9.35;;
53873;SDS011;62246;50.938;4.058;2022-09-29T01:52:18;16.40;;;9.00;;
53873;SDS011;62246;50.938;4.058;2022-09-29T02:00:04;15.30;;;8.55;;
53873;SDS011;62246;50.938;4.058;2022-09-29T02:02:39;16.35;;;8.45;;
53873;SDS011;62246;50.938;4.058;2022-09-29T02:05:12;13.02;;;7.97;;
53873;SDS011;62246;50.938;4.058;2022-09-29T02:07:43;15.30;;;7.82;;
53873;SDS011;62246;50.938;4.058;2022-09-29T02:16:24;16.02;;;7.85;;
53873;SDS011;62246;50.938;4.058;2022-09-29T02:19:06;16.60;;;8.55;;
53873;SDS011;62246;50.938;4.058;2022-09-29T02:21:37;14.80;;;7.85;;
53873;SDS011;62246;50.938;4.058;2022-09-29T02:24:03;15.15;;;7.70;;
53873;SDS011;62246;50.938;4.058;2022-09-29T02:26:30;17.08;;;8.43;;
53873;SDS011;62246;50.938;4.058;2022-09-29T02:28:59;14.90;;;8.18;;
53873;SDS011;62246;50.938;4.058;2022-09-29T02:31:26;18.05;;;7.65;;
53873;SDS011;62246;50.938;4.058;2022-09-29T02:33:51;13.50;;;7.95;;
53873;SDS011;62246;50.938;4.058;2022-09-29T02:39:07;17.98;;;7.68;;
53873;SDS011;62246;50.938;4.058;2022-09-29T02:44:26;14.77;;;7.75;;
53873;SDS011;62246;50.938;4.058;2022-09-29T03:01:14;17.35;;;8.60;;
53873;SDS011;62246;50.938;4.058;2022-09-29T03:03:40;14.88;;;8.00;;
53873;SDS011;62246;50.938;4.058;2022-09-29T03:06:06;16.90;;;7.95;;
53873;SDS011;62246;50.938;4.058;2022-09-29T03:08:32;13.32;;;7.85;;
53873;SDS011;62246;50.938;4.058;2022-09-29T03:10:58;15.50;;;7.82;;
53873;SDS011;62246;50.938;4.058;2022-09-29T03:13:23;17.50;;;8.13;;
53873;SDS011;62246;50.938;4.058;2022-09-29T03:15:49;17.40;;;8.25;;
53873;SDS011;62246;50.938;4.058;2022-09-29T03:18:14;16.23;;;8.00;;
53873;SDS011;62246;50.938;4.058;2022-09-29T03:20:43;16.15;;;8.20;;
53873;SDS011;62246;50.938;4.058;2022-09-29T03:23:08;16.15;;;7.85;;
53873;SDS011;62246;50.938;4.058;2022-09-29T03:25:34;16.80;;;7.78;;
53873;SDS011;62246;50.938;4.058;2022-09-29T03:28:02;14.63;;;8.27;;
53873;SDS011;62246;50.938;4.058;2022-09-29T03:30:27;14.45;;;8.10;;
53873;SDS011;62246;50.938;4.058;2022-09-29T03:32:53;15.35;;;7.95;;
53873;SDS011;62246;50.938;4.058;2022-09-29T03:35:18;15.75;;;7.95;;
53873;SDS011;62246;50.938;4.058;2022-09-29T03:37:43;18.77;;;9.00;;
53873;SDS011;62246;50.938;4.058;2022-09-29T03:40:09;13.48;;;8.27;;
53873;SDS011;62246;50.938;4.058;2022-09-29T03:42:34;15.18;;;8.27;;
53873;SDS011;62246;50.938;4.058;2022-09-29T03:45:00;19.60;;;9.25;;
53873;SDS011;62246;50.938;4.058;2022-09-29T03:47:25;15.43;;;8.30;;
53873;SDS011;62246;50.938;4.058;2022-09-29T03:49:51;15.80;;;7.32;;
53873;SDS011;62246;50.938;4.058;2022-09-29T03:52:16;15.27;;;8.05;;
53873;SDS011;62246;50.938;4.058;2022-09-29T03:54:41;14.98;;;7.90;;
53873;SDS011;62246;50.938;4.058;2022-09-29T03:57:07;18.88;;;8.35;;
53873;SDS011;62246;50.938;4.058;2022-09-29T03:59:32;17.33;;;8.75;;
53873;SDS011;62246;50.938;4.058;2022-09-29T04:01:58;16.20;;;8.38;;
53873;SDS011;62246;50.938;4.058;2022-09-29T04:04:23;18.60;;;8.48;;
53873;SDS011;62246;50.938;4.058;2022-09-29T04:06:49;17.35;;;8.13;;
53873;SDS011;62246;50.938;4.058;2022-09-29T04:09:14;16.63;;;8.15;;
53873;SDS011;62246;50.938;4.058;2022-09-29T04:11:40;15.23;;;8.27;;
53873;SDS011;62246;50.938;4.058;2022-09-29T04:14:05;18.70;;;8.77;;
53873;SDS011;62246;50.938;4.058;2022-09-29T04:16:31;14.25;;;8.23;;
53873;SDS011;62246;50.938;4.058;2022-09-29T04:18:56;17.40;;;8.55;;
53873;SDS011;62246;50.938;4.058;2022-09-29T04:21:22;16.60;;;8.93;;
53873;SDS011;62246;50.938;4.058;2022-09-29T04:23:47;15.18;;;8.57;;
53873;SDS011;62246;50.938;4.058;2022-09-29T04:26:13;17.27;;;9.13;;
53873;SDS011;62246;50.938;4.058;2022-09-29T04:28:39;14.52;;;8.50;;
53873;SDS011;62246;50.938;4.058;2022-09-29T04:31:05;15.10;;;7.78;;
53873;SDS011;62246;50.938;4.058;2022-09-29T04:33:30;15.20;;;8.25;;
53873;SDS011;62246;50.938;4.058;2022-09-29T04:35:57;17.25;;;7.93;;
53873;SDS011;62246;50.938;4.058;2022-09-29T04:38:23;15.35;;;8.27;;
53873;SDS011;62246;50.938;4.058;2022-09-29T04:40:49;15.43;;;8.43;;
53873;SDS011;62246;50.938;4.058;2022-09-29T04:43:15;19.35;;;9.07;;
53873;SDS011;62246;50.938;4.058;2022-09-29T04:45:41;14.82;;;7.50;;
53873;SDS011;62246;50.938;4.058;2022-09-29T04:48:06;17.63;;;9.05;;
53873;SDS011;62246;50.938;4.058;2022-09-29T04:50:32;21.17;;;8.80;;
53873;SDS011;62246;50.938;4.058;2022-09-29T04:52:58;21.30;;;8.55;;
53873;SDS011;62246;50.938;4.058;2022-09-29T04:55:24;20.95;;;8.35;;
53873;SDS011;62246;50.938;4.058;2022-09-29T04:57:50;16.23;;;8.00;;
53873;SDS011;62246;50.938;4.058;2022-09-29T05:00:15;18.20;;;8.82;;
53873;SDS011;62246;50.938;4.058;2022-09-29T05:02:41;14.73;;;7.72;;
53873;SDS011;62246;50.938;4.058;2022-09-29T05:05:07;13.90;;;7.93;;
53873;SDS011;62246;50.938;4.058;2022-09-29T05:07:34;15.95;;;8.23;;
53873;SDS011;62246;50.938;4.058;2022-09-29T05:10:00;15.77;;;8.70;;
53873;SDS011;62246;50.938;4.058;2022-09-29T05:12:26;14.55;;;8.13;;
53873;SDS011;62246;50.938;4.058;2022-09-29T05:14:51;19.02;;;8.60;;
53873;SDS011;62246;50.938;4.058;2022-09-29T05:17:17;15.70;;;8.32;;
53873;SDS011;62246;50.938;4.058;2022-09-29T05:19:42;18.88;;;8.27;;
53873;SDS011;62246;50.938;4.058;2022-09-29T05:22:07;15.45;;;8.50;;
53873;SDS011;62246;50.938;4.058;2022-09-29T05:24:33;14.77;;;8.60;;
53873;SDS011;62246;50.938;4.058;2022-09-29T05:26:58;17.15;;;8.40;;
53873;SDS011;62246;50.938;4.058;2022-09-29T05:29:24;17.40;;;8.15;;
53873;SDS011;62246;50.938;4.058;2022-09-29T05:31:50;18.95;;;9.27;;
53873;SDS011;62246;50.938;4.058;2022-09-29T05:34:16;16.70;;;8.88;;
53873;SDS011;62246;50.938;4.058;2022-09-29T05:36:41;18.35;;;8.48;;
53873;SDS011;62246;50.938;4.058;2022-09-29T05:39:07;18.88;;;7.95;;
53873;SDS011;62246;50.938;4.058;2022-09-29T05:41:32;16.25;;;8.77;;
53873;SDS011;62246;50.938;4.058;2022-09-29T05:43:58;20.45;;;9.70;;
53873;SDS011;62246;50.938;4.058;2022-09-29T05:46:25;18.98;;;9.05;;
53873;SDS011;62246;50.938;4.058;2022-09-29T05:48:51;17.65;;;8.48;;
53873;SDS011;62246;50.938;4.058;2022-09-29T05:51:18;16.63;;;8.23;;
53873;SDS011;62246;50.938;4.058;2022-09-29T05:53:46;19.27;;;8.77;;
53873;SDS011;62246;50.938;4.058;2022-09-29T05:56:13;19.27;;;10.13;;
53873;SDS011;62246;50.938;4.058;2022-09-29T05:58:40;16.45;;;9.10;;
53873;SDS011;62246;50.938;4.058;2022-09-29T06:01:07;18.83;;;8.88;;
53873;SDS011;62246;50.938;4.058;2022-09-29T06:03:34;17.65;;;7.97;;
53873;SDS011;62246;50.938;4.058;2022-09-29T06:06:03;20.55;;;9.50;;
53873;SDS011;62246;50.938;4.058;2022-09-29T06:08:32;16.52;;;8.73;;
53873;SDS011;62246;50.938;4.058;2022-09-29T06:11:05;20.95;;;10.07;;
53873;SDS011;62246;50.938;4.058;2022-09-29T06:13:51;19.23;;;8.85;;
53873;SDS011;62246;50.938;4.058;2022-09-29T06:16:19;17.30;;;9.15;;
53873;SDS011;62246;50.938;4.058;2022-09-29T06:18:46;18.67;;;8.57;;
53873;SDS011;62246;50.938;4.058;2022-09-29T06:21:13;19.83;;;9.23;;
53873;SDS011;62246;50.938;4.058;2022-09-29T06:23:40;17.27;;;8.27;;
53873;SDS011;62246;50.938;4.058;2022-09-29T06:26:07;16.00;;;8.10;;
53873;SDS011;62246;50.938;4.058;2022-09-29T06:28:34;22.67;;;9.50;;
53873;SDS011;62246;50.938;4.058;2022-09-29T06:31:00;21.33;;;9.85;;
53873;SDS011;62246;50.938;4.058;2022-09-29T06:33:28;18.42;;;9.48;;
53873;SDS011;62246;50.938;4.058;2022-09-29T06:35:55;17.42;;;8.57;;
53873;SDS011;62246;50.938;4.058;2022-09-29T06:38:53;19.77;;;9.68;;
53873;SDS011;62246;50.938;4.058;2022-09-29T06:41:19;21.15;;;9.50;;
53873;SDS011;62246;50.938;4.058;2022-09-29T06:43:45;18.02;;;10.00;;
53873;SDS011;62246;50.938;4.058;2022-09-29T06:46:10;17.77;;;9.60;;
53873;SDS011;62246;50.938;4.058;2022-09-29T06:48:35;18.98;;;9.98;;
53873;SDS011;62246;50.938;4.058;2022-09-29T06:51:01;20.02;;;10.75;;
53873;SDS011;62246;50.938;4.058;2022-09-29T06:53:31;22.38;;;11.00;;
53873;SDS011;62246;50.938;4.058;2022-09-29T06:55:56;21.23;;;10.93;;
53873;SDS011;62246;50.938;4.058;2022-09-29T06:58:22;20.80;;;10.57;;
53873;SDS011;62246;50.938;4.058;2022-09-29T07:00:48;24.27;;;11.07;;
53873;SDS011;62246;50.938;4.058;2022-09-29T07:03:13;19.42;;;10.02;;
53873;SDS011;62246;50.938;4.058;2022-09-29T07:05:39;19.92;;;9.48;;
53873;SDS011;62246;50.938;4.058;2022-09-29T07:08:04;23.13;;;10.82;;
53873;SDS011;62246;50.938;4.058;2022-09-29T07:10:29;20.15;;;10.10;;
53873;SDS011;62246;50.938;4.058;2022-09-29T07:12:55;20.80;;;9.57;;
53873;SDS011;62246;50.938;4.058;2022-09-29T07:15:20;21.90;;;10.15;;
53873;SDS011;62246;50.938;4.058;2022-09-29T07:17:49;16.77;;;8.85;;
53873;SDS011;62246;50.938;4.058;2022-09-29T07:20:15;20.48;;;9.73;;
53873;SDS011;62246;50.938;4.058;2022-09-29T07:22:41;16.50;;;9.02;;
53873;SDS011;62246;50.938;4.058;2022-09-29T07:25:06;17.65;;;8.73;;
53873;SDS011;62246;50.938;4.058;2022-09-29T07:27:32;14.73;;;7.68;;
53873;SDS011;62246;50.938;4.058;2022-09-29T07:29:58;19.80;;;9.55;;
53873;SDS011;62246;50.938;4.058;2022-09-29T07:32:23;20.48;;;8.95;;
53873;SDS011;62246;50.938;4.058;2022-09-29T07:34:50;15.73;;;8.57;;
53873;SDS011;62246;50.938;4.058;2022-09-29T07:37:16;15.25;;;8.63;;
53873;SDS011;62246;50.938;4.058;2022-09-29T07:39:41;18.75;;;8.98;;
53873;SDS011;62246;50.938;4.058;2022-09-29T07:42:07;19.73;;;9.15;;
53873;SDS011;62246;50.938;4.058;2022-09-29T07:44:32;17.13;;;9.73;;
53873;SDS011;62246;50.938;4.058;2022-09-29T07:46:58;19.05;;;8.88;;
53873;SDS011;62246;50.938;4.058;2022-09-29T07:49:24;18.30;;;8.98;;
53873;SDS011;62246;50.938;4.058;2022-09-29T07:51:49;14.82;;;8.07;;
53873;SDS011;62246;50.938;4.058;2022-09-29T07:54:15;16.75;;;9.25;;
53873;SDS011;62246;50.938;4.058;2022-09-29T07:56:40;17.33;;;8.57;;
53873;SDS011;62246;50.938;4.058;2022-09-29T07:59:06;17.23;;;8.55;;
53873;SDS011;62246;50.938;4.058;2022-09-29T08:01:31;15.55;;;8.50;;
53873;SDS011;62246;50.938;4.058;2022-09-29T08:03:57;20.73;;;9.32;;
53873;SDS011;62246;50.938;4.058;2022-09-29T08:06:23;15.73;;;7.22;;
53873;SDS011;62246;50.938;4.058;2022-09-29T08:08:49;12.75;;;7.35;;
53873;SDS011;62246;50.938;4.058;2022-09-29T08:11:16;16.17;;;7.20;;
53873;SDS011;62246;50.938;4.058;2022-09-29T08:13:44;14.30;;;7.85;;
53873;SDS011;62246;50.938;4.058;2022-09-29T08:16:12;14.40;;;7.72;;
53873;SDS011;62246;50.938;4.058;2022-09-29T08:18:38;16.02;;;8.13;;
53873;SDS011;62246;50.938;4.058;2022-09-29T08:21:05;19.17;;;8.80;;
53873;SDS011;62246;50.938;4.058;2022-09-29T08:23:37;15.77;;;8.48;;
53873;SDS011;62246;50.938;4.058;2022-09-29T08:26:04;17.10;;;8.43;;
53873;SDS011;62246;50.938;4.058;2022-09-29T08:28:48;15.15;;;7.80;;
53873;SDS011;62246;50.938;4.058;2022-09-29T08:31:18;17.58;;;7.93;;
53873;SDS011;62246;50.938;4.058;2022-09-29T08:33:48;12.93;;;6.47;;
53873;SDS011;62246;50.938;4.058;2022-09-29T08:36:15;12.27;;;6.38;;
53873;SDS011;62246;50.938;4.058;2022-09-29T08:38:45;17.27;;;7.05;;
53873;SDS011;62246;50.938;4.058;2022-09-29T08:46:32;14.18;;;6.03;;
53873;SDS011;62246;50.938;4.058;2022-09-29T08:49:03;14.00;;;7.13;;
53873;SDS011;62246;50.938;4.058;2022-09-29T08:51:39;13.35;;;5.85;;
53873;SDS011;62246;50.938;4.058;2022-09-29T08:54:22;13.50;;;5.95;;
53873;SDS011;62246;50.938;4.058;2022-09-29T08:56:48;12.20;;;5.55;;
53873;SDS011;62246;50.938;4.058;2022-09-29T08:59:14;13.30;;;5.85;;
53873;SDS011;62246;50.938;4.058;2022-09-29T09:07:17;12.77;;;4.95;;
53873;SDS011;62246;50.938;4.058;2022-09-29T09:12:37;11.20;;;4.95;;
53873;SDS011;62246;50.938;4.058;2022-09-29T09:15:59;11.48;;;4.07;;
53873;SDS011;62246;50.938;4.058;2022-09-29T09:18:33;16.00;;;5.30;;
53873;SDS011;62246;50.938;4.058;2022-09-29T09:23:54;12.88;;;5.50;;
53873;SDS011;62246;50.938;4.058;2022-09-29T09:26:43;15.70;;;4.90;;
53873;SDS011;62246;50.938;4.058;2022-09-29T09:29:20;9.98;;;4.22;;
53873;SDS011;62246;50.938;4.058;2022-09-29T09:32:18;10.15;;;3.88;;
53873;SDS011;62246;50.938;4.058;2022-09-29T09:34:50;9.77;;;3.50;;
53873;SDS011;62246;50.938;4.058;2022-09-29T09:37:43;7.07;;;3.53;;
53873;SDS011;62246;50.938;4.058;2022-09-29T09:42:41;4.80;;;2.30;;
53873;SDS011;62246;50.938;4.058;2022-09-29T09:45:18;4.75;;;2.20;;
53873;SDS011;62246;50.938;4.058;2022-09-29T09:47:55;5.53;;;2.88;;
53873;SDS011;62246;50.938;4.058;2022-09-29T09:50:30;6.93;;;2.88;;
53873;SDS011;62246;50.938;4.058;2022-09-29T09:52:57;4.50;;;2.10;;
53873;SDS011;62246;50.938;4.058;2022-09-29T09:55:28;5.85;;;2.38;;
53873;SDS011;62246;50.938;4.058;2022-09-29T10:03:17;6.43;;;2.13;;
53873;SDS011;62246;50.938;4.058;2022-09-29T10:05:43;7.68;;;2.83;;
53873;SDS011;62246;50.938;4.058;2022-09-29T10:08:12;3.90;;;2.05;;
53873;SDS011;62246;50.938;4.058;2022-09-29T10:10:44;6.43;;;2.80;;
53873;SDS011;62246;50.938;4.058;2022-09-29T10:13:11;4.93;;;2.45;;
53873;SDS011;62246;50.938;4.058;2022-09-29T10:18:24;5.15;;;2.25;;
53873;SDS011;62246;50.938;4.058;2022-09-29T10:20:56;7.22;;;2.67;;
53873;SDS011;62246;50.938;4.058;2022-09-29T10:23:32;6.45;;;2.50;;
53873;SDS011;62246;50.938;4.058;2022-09-29T10:26:00;6.43;;;2.63;;
53873;SDS011;62246;50.938;4.058;2022-09-29T10:28:49;6.43;;;2.25;;
53873;SDS011;62246;50.938;4.058;2022-09-29T10:31:26;9.00;;;2.53;;
53873;SDS011;62246;50.938;4.058;2022-09-29T10:33:58;4.30;;;2.38;;
53873;SDS011;62246;50.938;4.058;2022-09-29T10:36:31;4.07;;;2.35;;
53873;SDS011;62246;50.938;4.058;2022-09-29T10:39:28;5.25;;;2.13;;
53873;SDS011;62246;50.938;4.058;2022-09-29T10:41:56;5.28;;;2.40;;
53873;SDS011;62246;50.938;4.058;2022-09-29T10:44:21;5.25;;;2.05;;
53873;SDS011;62246;50.938;4.058;2022-09-29T10:46:52;5.63;;;2.10;;
53873;SDS011;62246;50.938;4.058;2022-09-29T10:49:20;2.75;;;1.58;;
53873;SDS011;62246;50.938;4.058;2022-09-29T10:51:55;4.25;;;1.67;;
53873;SDS011;62246;50.938;4.058;2022-09-29T10:54:32;2.53;;;1.42;;
53873;SDS011;62246;50.938;4.058;2022-09-29T10:57:10;4.10;;;1.95;;
53873;SDS011;62246;50.938;4.058;2022-09-29T10:59:47;4.05;;;1.70;;
53873;SDS011;62246;50.938;4.058;2022-09-29T11:02:22;3.45;;;1.88;;
53873;SDS011;62246;50.938;4.058;2022-09-29T11:04:52;1.65;;;1.10;;
53873;SDS011;62246;50.938;4.058;2022-09-29T11:07:20;5.57;;;1.38;;
53873;SDS011;62246;50.938;4.058;2022-09-29T11:09:46;4.13;;;1.48;;
53873;SDS011;62246;50.938;4.058;2022-09-29T11:14:59;2.05;;;1.10;;
53873;SDS011;62246;50.938;4.058;2022-09-29T11:17:29;1.67;;;0.80;;
53873;SDS011;62246;50.938;4.058;2022-09-29T11:20:02;2.25;;;0.80;;
53873;SDS011;62246;50.938;4.058;2022-09-29T11:25:31;3.25;;;0.80;;
53873;SDS011;62246;50.938;4.058;2022-09-29T11:28:22;1.80;;;0.60;;
53873;SDS011;62246;50.938;4.058;2022-09-29T11:37:16;2.47;;;0.60;;
53873;SDS011;62246;50.938;4.058;2022-09-29T11:40:56;1.98;;;0.60;;
53873;SDS011;62246;50.938;4.058;2022-09-29T11:43:05;2.40;;;0.60;;
53873;SDS011;62246;50.938;4.058;2022-09-29T11:45:43;1.65;;;0.60;;
53873;SDS011;62246;50.938;4.058;2022-09-29T11:53:58;2.47;;;0.90;;
53873;SDS011;62246;50.938;4.058;2022-09-29T11:56:45;4.65;;;1.58;;
53873;SDS011;62246;50.938;4.058;2022-09-29T11:59:39;4.10;;;1.15;;
53873;SDS011;62246;50.938;4.058;2022-09-29T12:02:27;1.27;;;1.17;;
53873;SDS011;62246;50.938;4.058;2022-09-29T12:11:10;1.08;;;0.68;;
53873;SDS011;62246;50.938;4.058;2022-09-29T12:13:50;2.90;;;0.98;;
53873;SDS011;62246;50.938;4.058;2022-09-29T12:16:23;1.90;;;0.93;;
53873;SDS011;62246;50.938;4.058;2022-09-29T12:19:15;1.95;;;1.10;;
53873;SDS011;62246;50.938;4.058;2022-09-29T12:21:48;1.38;;;0.77;;
53873;SDS011;62246;50.938;4.058;2022-09-29T12:26:55;1.33;;;0.77;;
53873;SDS011;62246;50.938;4.058;2022-09-29T12:29:26;2.63;;;1.08;;
53873;SDS011;62246;50.938;4.058;2022-09-29T12:31:59;1.88;;;0.70;;
53873;SDS011;62246;50.938;4.058;2022-09-29T12:34:38;2.05;;;0.60;;
53873;SDS011;62246;50.938;4.058;2022-09-29T12:37:16;1.77;;;0.90;;
53873;SDS011;62246;50.938;4.058;2022-09-29T12:39:58;3.60;;;1.00;;
53873;SDS011;62246;50.938;4.058;2022-09-29T12:45:10;6.63;;;1.80;;
53873;SDS011;62246;50.938;4.058;2022-09-29T12:53:34;3.22;;;0.90;;
53873;SDS011;62246;50.938;4.058;2022-09-29T12:56:06;3.95;;;0.80;;
53873;SDS011;62246;50.938;4.058;2022-09-29T12:58:45;13.55;;;1.38;;
53873;SDS011;62246;50.938;4.058;2022-09-29T13:11:54;8.65;;;1.17;;
53873;SDS011;62246;50.938;4.058;2022-09-29T13:27:43;7.80;;;1.33;;
53873;SDS011;62246;50.938;4.058;2022-09-29T13:35:43;8.10;;;1.42;;
53873;SDS011;62246;50.938;4.058;2022-09-29T13:38:27;6.57;;;1.80;;
53873;SDS011;62246;50.938;4.058;2022-09-29T13:51:42;2.67;;;1.20;;
53873;SDS011;62246;50.938;4.058;2022-09-29T13:56:51;5.20;;;1.30;;
53873;SDS011;62246;50.938;4.058;2022-09-29T13:59:24;15.90;;;2.25;;
53873;SDS011;62246;50.938;4.058;2022-09-29T14:01:51;2.47;;;1.08;;
53873;SDS011;62246;50.938;4.058;2022-09-29T14:07:00;13.00;;;1.60;;
53873;SDS011;62246;50.938;4.058;2022-09-29T14:09:29;3.83;;;0.90;;
53873;SDS011;62246;50.938;4.058;2022-09-29T14:12:01;6.97;;;1.00;;
53873;SDS011;62246;50.938;4.058;2022-09-29T14:14:33;5.10;;;0.82;;
53873;SDS011;62246;50.938;4.058;2022-09-29T14:17:04;8.82;;;1.05;;
53873;SDS011;62246;50.938;4.058;2022-09-29T14:19:38;2.05;;;0.98;;
53873;SDS011;62246;50.938;4.058;2022-09-29T14:24:51;1.15;;;0.90;;
53873;SDS011;62246;50.938;4.058;2022-09-29T14:41:22;20.17;;;1.73;;
53873;SDS011;62246;50.938;4.058;2022-09-29T15:00:15;12.57;;;2.42;;
53873;SDS011;62246;50.938;4.058;2022-09-29T15:02:49;5.10;;;1.50;;
53873;SDS011;62246;50.938;4.058;2022-09-29T15:05:24;5.10;;;1.60;;
53873;SDS011;62246;50.938;4.058;2022-09-29T15:07:58;12.23;;;1.97;;
53873;SDS011;62246;50.938;4.058;2022-09-29T15:10:29;6.07;;;1.58;;
53873;SDS011;62246;50.938;4.058;2022-09-29T15:16:18;4.95;;;1.63;;
53873;SDS011;62246;50.938;4.058;2022-09-29T15:26:40;7.65;;;2.00;;
53873;SDS011;62246;50.938;4.058;2022-09-29T15:29:07;12.48;;;2.25;;
53873;SDS011;62246;50.938;4.058;2022-09-29T15:31:36;6.43;;;1.80;;
53873;SDS011;62246;50.938;4.058;2022-09-29T15:34:02;6.22;;;1.98;;
53873;SDS011;62246;50.938;4.058;2022-09-29T15:36:33;5.32;;;1.70;;
53873;SDS011;62246;50.938;4.058;2022-09-29T15:39:04;8.13;;;1.80;;
53873;SDS011;62246;50.938;4.058;2022-09-29T15:41:32;6.10;;;1.52;;
53873;SDS011;62246;50.938;4.058;2022-09-29T15:44:00;3.45;;;1.00;;
53873;SDS011;62246;50.938;4.058;2022-09-29T15:51:37;15.35;;;1.90;;
53873;SDS011;62246;50.938;4.058;2022-09-29T15:54:04;7.10;;;1.30;;
53873;SDS011;62246;50.938;4.058;2022-09-29T15:56:34;6.93;;;1.20;;
53873;SDS011;62246;50.938;4.058;2022-09-29T15:59:19;5.35;;;1.30;;
53873;SDS011;62246;50.938;4.058;2022-09-29T16:01:46;6.20;;;1.20;;
53873;SDS011;62246;50.938;4.058;2022-09-29T16:04:14;6.13;;;1.30;;
53873;SDS011;62246;50.938;4.058;2022-09-29T16:06:42;22.63;;;2.00;;
53873;SDS011;62246;50.938;4.058;2022-09-29T16:09:15;4.85;;;1.17;;
53873;SDS011;62246;50.938;4.058;2022-09-29T16:11:43;7.13;;;1.70;;
53873;SDS011;62246;50.938;4.058;2022-09-29T16:14:10;3.88;;;1.30;;
53873;SDS011;62246;50.938;4.058;2022-09-29T16:16:45;2.75;;;1.50;;
53873;SDS011;62246;50.938;4.058;2022-09-29T16:19:15;6.07;;;1.35;;
53873;SDS011;62246;50.938;4.058;2022-09-29T16:24:18;2.88;;;0.98;;
53873;SDS011;62246;50.938;4.058;2022-09-29T16:31:48;2.67;;;1.00;;
53873;SDS011;62246;50.938;4.058;2022-09-29T16:36:49;3.38;;;1.20;;
53873;SDS011;62246;50.938;4.058;2022-09-29T16:39:15;3.40;;;1.35;;
53873;SDS011;62246;50.938;4.058;2022-09-29T16:41:46;4.80;;;1.08;;
53873;SDS011;62246;50.938;4.058;2022-09-29T16:44:14;7.13;;;1.65;;
53873;SDS011;62246;50.938;4.058;2022-09-29T16:46:52;3.40;;;1.40;;
53873;SDS011;62246;50.938;4.058;2022-09-29T16:49:19;2.67;;;1.23;;
53873;SDS011;62246;50.938;4.058;2022-09-29T16:51:51;4.75;;;1.27;;
53873;SDS011;62246;50.938;4.058;2022-09-29T16:54:22;3.17;;;1.30;;
53873;SDS011;62246;50.938;4.058;2022-09-29T16:57:08;3.83;;;1.48;;
53873;SDS011;62246;50.938;4.058;2022-09-29T16:59:34;4.00;;;1.58;;
53873;SDS011;62246;50.938;4.058;2022-09-29T17:02:00;3.83;;;1.55;;
53873;SDS011;62246;50.938;4.058;2022-09-29T17:04:25;2.75;;;1.50;;
53873;SDS011;62246;50.938;4.058;2022-09-29T17:06:51;5.40;;;1.85;;
53873;SDS011;62246;50.938;4.058;2022-09-29T17:09:17;6.72;;;1.70;;
53873;SDS011;62246;50.938;4.058;2022-09-29T17:11:47;2.75;;;1.50;;
53873;SDS011;62246;50.938;4.058;2022-09-29T17:14:13;4.05;;;1.80;;
53873;SDS011;62246;50.938;4.058;2022-09-29T17:16:39;2.85;;;1.63;;
53873;SDS011;62246;50.938;4.058;2022-09-29T17:19:07;3.22;;;2.05;;
53873;SDS011;62246;50.938;4.058;2022-09-29T17:21:34;4.18;;;1.80;;
53873;SDS011;62246;50.938;4.058;2022-09-29T17:23:59;4.82;;;1.83;;
53873;SDS011;62246;50.938;4.058;2022-09-29T17:26:36;5.85;;;2.30;;
53873;SDS011;62246;50.938;4.058;2022-09-29T17:29:22;7.65;;;2.55;;
53873;SDS011;62246;50.938;4.058;2022-09-29T17:31:48;4.43;;;1.95;;
53873;SDS011;62246;50.938;4.058;2022-09-29T17:34:13;4.38;;;1.85;;
53873;SDS011;62246;50.938;4.058;2022-09-29T17:36:39;5.78;;;1.95;;
53873;SDS011;62246;50.938;4.058;2022-09-29T17:39:04;7.22;;;1.98;;
53873;SDS011;62246;50.938;4.058;2022-09-29T17:41:30;5.95;;;2.17;;
53873;SDS011;62246;50.938;4.058;2022-09-29T17:43:56;8.07;;;2.17;;
53873;SDS011;62246;50.938;4.058;2022-09-29T17:46:21;5.10;;;2.10;;
53873;SDS011;62246;50.938;4.058;2022-09-29T17:48:46;5.40;;;2.85;;
53873;SDS011;62246;50.938;4.058;2022-09-29T17:51:14;5.72;;;2.83;;
53873;SDS011;62246;50.938;4.058;2022-09-29T17:53:42;7.47;;;3.05;;
53873;SDS011;62246;50.938;4.058;2022-09-29T17:56:21;6.63;;;3.30;;
53873;SDS011;62246;50.938;4.058;2022-09-29T17:58:51;6.82;;;3.42;;
53873;SDS011;62246;50.938;4.058;2022-09-29T18:01:18;10.15;;;3.53;;
53873;SDS011;62246;50.938;4.058;2022-09-29T18:03:46;10.32;;;4.38;;
53873;SDS011;62246;50.938;4.058;2022-09-29T18:06:21;8.60;;;3.83;;
53873;SDS011;62246;50.938;4.058;2022-09-29T18:08:49;10.88;;;4.10;;
53873;SDS011;62246;50.938;4.058;2022-09-29T18:11:19;8.98;;;4.25;;
53873;SDS011;62246;50.938;4.058;2022-09-29T18:13:46;13.80;;;4.68;;
53873;SDS011;62246;50.938;4.058;2022-09-29T18:16:13;10.55;;;5.28;;
53873;SDS011;62246;50.938;4.058;2022-09-29T18:18:41;12.80;;;5.60;;
53873;SDS011;62246;50.938;4.058;2022-09-29T18:21:07;9.30;;;4.72;;
53873;SDS011;62246;50.938;4.058;2022-09-29T18:23:34;10.68;;;5.40;;
53873;SDS011;62246;50.938;4.058;2022-09-29T18:25:59;11.25;;;4.90;;
53873;SDS011;62246;50.938;4.058;2022-09-29T18:28:25;9.52;;;5.18;;
53873;SDS011;62246;50.938;4.058;2022-09-29T18:30:56;11.32;;;6.00;;
53873;SDS011;62246;50.938;4.058;2022-09-29T18:33:29;14.80;;;7.57;;
53873;SDS011;62246;50.938;4.058;2022-09-29T18:35:55;11.43;;;6.68;;
53873;SDS011;62246;50.938;4.058;2022-09-29T18:38:20;13.60;;;7.55;;
53873;SDS011;62246;50.938;4.058;2022-09-29T18:40:46;13.30;;;6.65;;
53873;SDS011;62246;50.938;4.058;2022-09-29T18:43:11;15.25;;;7.15;;